createdAt,value
2019-04-22T00:05:11.623Z,9.88
2019-04-22T00:15:19.920Z,9.52
2019-04-22T00:25:26.645Z,9.27
2019-04-22T00:45:26.797Z,9.33
2019-04-22T00:55:29.254Z,9.21
2019-04-22T01:05:18.389Z,8.94
2019-04-22T01:15:31.901Z,8.86
2019-04-22T01:25:21.607Z,8.45
2019-04-22T01:35:08.382Z,8.04
2019-04-22T01:55:18.909Z,7.76
2019-04-22T02:05:18.742Z,7.79
2019-04-22T02:15:24.063Z,7.74
2019-04-22T02:35:31.215Z,7.66
2019-04-22T02:45:41.740Z,7.43
2019-04-22T03:15:30.520Z,7.33
2019-04-22T03:25:42.346Z,7.72
2019-04-22T03:35:45.200Z,7.38
2019-04-22T03:55:17.282Z,7.11
2019-04-22T04:05:41.538Z,6.97
2019-04-22T04:15:32.761Z,6.74
2019-04-22T04:25:27.267Z,6.92
2019-04-22T04:55:29.931Z,7.59
2019-04-22T05:05:16.809Z,7.89
2019-04-22T05:25:22.187Z,8.35
2019-04-22T05:35:28.158Z,8.53
2019-04-22T05:45:29.507Z,8.76
2019-04-22T06:05:27.577Z,10.93
2019-04-22T06:15:25.435Z,12.61
2019-04-22T06:35:29.999Z,14.96
2019-04-22T06:45:23.509Z,16.13
2019-04-22T07:05:17.923Z,17.71
2019-04-22T07:25:23.422Z,18.89
2019-04-22T07:35:28.905Z,19.66
2019-04-22T07:45:25.420Z,19.62
2019-04-22T07:55:11.900Z,20.23
2019-04-22T08:05:24.873Z,21.35
2019-04-22T08:25:16.718Z,22.71
2019-04-22T08:35:20.178Z,22.81
2019-04-22T08:45:23.076Z,22.98
2019-04-22T08:55:29.614Z,23.76
2019-04-22T09:05:42.071Z,24.47
2019-04-22T09:15:26.657Z,22.60
2019-04-22T09:25:24.059Z,23.61
2019-04-22T09:35:24.781Z,23.72
2019-04-22T09:45:22.986Z,24.26
2019-04-22T09:55:27.069Z,24.73
2019-04-22T10:05:29.305Z,24.62
2019-04-22T10:15:26.734Z,23.97
2019-04-22T10:25:19.634Z,24.12
2019-04-22T10:35:05.046Z,24.22
2019-04-22T10:45:01.095Z,24.27
2019-04-22T10:55:01.119Z,24.56
2019-04-22T11:04:59.749Z,24.67
2019-04-22T11:15:00.050Z,24.10
2019-04-22T11:25:01.176Z,24.77
2019-04-22T11:34:59.856Z,24.77
2019-04-22T11:44:59.738Z,24.70
2019-04-22T11:55:00.996Z,25.01
2019-04-22T12:04:59.756Z,24.94
2019-04-22T12:15:00.733Z,24.90
2019-04-22T12:25:00.588Z,24.80
2019-04-22T12:34:59.859Z,24.93
2019-04-22T12:45:00.439Z,24.61
2019-04-22T12:54:59.796Z,23.85
2019-04-22T13:05:00.618Z,24.81
2019-04-22T13:15:01.101Z,25.80
2019-04-22T13:24:59.998Z,25.93
2019-04-22T13:35:01.584Z,25.20
2019-04-22T13:45:00.177Z,24.84
2019-04-22T13:55:25.709Z,25.35
2019-04-22T14:05:00.947Z,24.81
2019-04-22T14:15:02.128Z,25.34
2019-04-22T14:25:00.607Z,25.76
2019-04-22T14:35:00.775Z,25.69
2019-04-22T14:45:42.526Z,25.99
2019-04-22T14:55:08.026Z,26.00
2019-04-22T15:05:00.550Z,25.51
2019-04-22T15:14:59.843Z,24.95
2019-04-22T15:25:00.751Z,25.64
2019-04-22T15:35:01.386Z,25.55
2019-04-22T15:45:00.041Z,25.29
2019-04-22T15:55:00.769Z,25.32
2019-04-22T16:04:59.803Z,25.74
2019-04-22T16:15:02.993Z,24.42
2019-04-22T16:25:02.309Z,24.46
2019-04-22T16:35:00.738Z,24.32
2019-04-22T16:44:59.918Z,23.97
2019-04-22T16:55:00.988Z,23.92
2019-04-22T17:04:59.802Z,23.75
2019-04-22T17:15:05.701Z,23.59
2019-04-22T17:25:00.220Z,23.54
2019-04-22T17:35:01.816Z,23.36
2019-04-22T17:45:15.772Z,23.12
2019-04-22T17:55:19.593Z,22.93
2019-04-22T18:05:05.471Z,22.68
2019-04-22T18:15:16.233Z,22.20
2019-04-22T18:25:13.379Z,21.85
2019-04-22T18:35:20.530Z,21.32
2019-04-22T18:45:35.553Z,21.08
2019-04-22T18:55:21.000Z,20.89
2019-04-22T19:05:09.794Z,20.63
2019-04-22T19:15:24.961Z,20.48
2019-04-22T19:25:15.369Z,20.32
2019-04-22T19:35:21.328Z,20.12
2019-04-22T19:45:15.748Z,19.88
2019-04-22T19:55:23.889Z,19.72
2019-04-22T20:15:18.442Z,19.26
2019-04-22T20:25:08.896Z,18.78
2019-04-22T20:35:15.841Z,18.70
2019-04-22T20:45:29.459Z,18.54
2019-04-22T20:55:16.300Z,18.13
2019-04-22T21:05:14.330Z,17.82
2019-04-22T21:25:14.180Z,17.08
2019-04-22T21:45:14.961Z,16.81
2019-04-22T21:55:24.399Z,16.56
2019-04-22T22:05:08.247Z,16.29
2019-04-22T22:15:22.613Z,16.01
2019-04-22T22:25:21.249Z,15.84
2019-04-22T22:35:20.534Z,15.40
2019-04-22T22:45:10.537Z,14.89
2019-04-22T22:55:25.009Z,14.70
2019-04-22T23:05:19.949Z,14.57
2019-04-22T23:15:23.457Z,14.32
2019-04-22T23:25:22.985Z,14.18
2019-04-22T23:35:17.958Z,14.17
2019-04-22T23:45:21.453Z,13.98
2019-04-22T23:55:15.608Z,13.81
